Aérodrome :
LOGIN :

S'inscrire | Disclaimer

   EN    FR    IT 

 










Légende :    VFR   VFR Marginal   IFR   IFR Intensif   IFR Très Intensif
Visi : 
Plafond : 
>= 8 km
>= 3000ft
5 à 8 km
1000 à 3000 ft
1500m à 5 km
500 à 1000 ft
800 à 1500m
200 à 500 ft
< 800m
< 200 ft
Symboles :   Orages  Brouillard  Fortes neiges  Fortes précipitations  Vent > 20 kt
SIGMETs :   Divers  Orages  Givrage  Turbulence  Onde Orograph.  Cendres Volcan.







- Altitude de l'aérodrome : 17 ft
- Code IATA : CPH


EKCH - København - Kastrup (Copenhagen)

DERNIER METAR :
  • 210320Z 24009KT 1800 BR OVC002 06/06 Q1028 TEMPO 0500 FG BKN005

METARs EXPIRÉS :
  • 210250Z 23010KT 0900 R22L/P1500N R04L/P1500N R30/P1500N FG BKN002 06/06 Q1029 TEMPO 0500 BKN005
  • 210220Z 24010KT 1800 BR BKN001 06/06 Q1029 TEMPO 4000 BKN005
  • 210150Z 24011KT 2500 BR BKN001 06/06 Q1029 TEMPO 4000 BKN005
  • 210120Z 24012KT 2500 BR BKN001 06/06 Q1029 TEMPO 4000 BKN005
  • 210050Z 24009KT 3500 BR BKN002 06/06 Q1029 TEMPO 6000 BKN005

TAF AMD TAF EKCH
Valide du 21 à 01h jusqu'au 22 à 00h UTC


210122Z 2101/2124 26012KT 2500 BR BKN001
TEMPO 2101/2109 4000 BKN008
BECMG 2109/2111 9999 NSW BKN015
TEMPO 2111/2124 4000 BR BKN008
Pas de NOTAMs connus pour ce terrain.



MET'MAP, la Météo Aéronautique d'un coup d'oeil ! - Copyright ORBIFLY Décembre 2007 - Disclaimer

ORBIFLY MET'MAP TEAM :

Programmation & Développement : Alexandra Zaïnal
Conception & Développement : Baudouin d'Aumeries
Co-Programmation & Développement : Marc-Olivier Méhu
Soutien technique & logistique : Manuel Goepfert

Contact : metmap@orbifly.com




SOURCES & CREDITS :

   NOAA